createdAt,value
2018-11-05T00:01:26.462Z,20.30
2018-11-05T00:03:56.335Z,23.13
2018-11-05T00:06:26.179Z,20.07
2018-11-05T00:08:56.080Z,21.03
2018-11-05T00:11:26.023Z,19.17
2018-11-05T00:13:55.822Z,18.57
2018-11-05T00:16:25.610Z,19.80
2018-11-05T00:18:55.497Z,19.67
2018-11-05T00:21:25.360Z,16.83
2018-11-05T00:23:55.266Z,19.20
2018-11-05T00:26:25.440Z,21.00
2018-11-05T00:28:55.274Z,20.47
2018-11-05T00:31:25.270Z,19.13
2018-11-05T00:33:55.394Z,20.67
2018-11-05T00:36:25.411Z,19.67
2018-11-05T00:38:55.240Z,19.23
2018-11-05T00:41:25.110Z,20.20
2018-11-05T00:43:55.024Z,19.03
2018-11-05T00:46:24.904Z,20.77
2018-11-05T00:48:54.763Z,21.60
2018-11-05T00:51:24.713Z,22.03
2018-11-05T00:53:54.570Z,19.63
2018-11-05T00:56:25.329Z,22.37
2018-11-05T00:58:55.254Z,19.00
2018-11-05T01:01:25.232Z,20.20
2018-11-05T01:03:55.216Z,20.70
2018-11-05T01:06:25.311Z,21.47
2018-11-05T01:08:55.340Z,20.03
2018-11-05T01:11:25.435Z,18.93
2018-11-05T01:13:55.658Z,19.33
2018-11-05T01:16:25.847Z,18.03
2018-11-05T01:18:55.896Z,19.03
2018-11-05T01:21:25.905Z,16.70
2018-11-05T01:23:55.822Z,15.77
2018-11-05T01:26:25.926Z,16.60
2018-11-05T01:28:55.907Z,20.47
2018-11-05T01:31:26.260Z,14.97
2018-11-05T01:33:56.638Z,16.17
2018-11-05T01:36:26.673Z,16.73
2018-11-05T01:38:56.696Z,17.00
2018-11-05T01:41:26.643Z,18.67
2018-11-05T01:43:56.533Z,18.30
2018-11-05T01:46:26.442Z,16.63
2018-11-05T01:48:56.349Z,15.67
2018-11-05T01:51:26.291Z,17.40
2018-11-05T01:53:56.173Z,14.97
2018-11-05T01:56:26.063Z,19.03
2018-11-05T01:58:55.971Z,17.10
2018-11-05T02:01:25.893Z,17.30
2018-11-05T02:03:55.769Z,16.33
2018-11-05T02:06:25.787Z,16.63
2018-11-05T02:08:55.716Z,16.70
2018-11-05T02:11:25.533Z,16.13
2018-11-05T02:13:55.459Z,18.60
2018-11-05T02:16:25.422Z,17.37
2018-11-05T02:18:55.313Z,19.00
2018-11-05T02:21:25.240Z,18.13
2018-11-05T02:23:55.315Z,16.57
2018-11-05T02:26:25.252Z,19.47
2018-11-05T02:28:55.082Z,16.73
2018-11-05T02:31:25.036Z,18.03
2018-11-05T02:33:54.854Z,19.17
2018-11-05T02:36:24.758Z,17.27
2018-11-05T02:38:54.708Z,17.43
2018-11-05T02:41:24.592Z,19.00
2018-11-05T02:43:54.422Z,16.83
2018-11-05T02:46:24.324Z,19.63
2018-11-05T02:48:54.178Z,17.40
2018-11-05T02:51:24.058Z,17.23
2018-11-05T02:53:53.988Z,18.07
2018-11-05T02:56:23.876Z,19.10
2018-11-05T02:58:53.625Z,14.40
2018-11-05T03:01:23.606Z,13.23
2018-11-05T03:03:53.592Z,16.93
2018-11-05T03:06:23.454Z,16.40
2018-11-05T03:08:53.309Z,20.30
2018-11-05T03:11:23.165Z,19.93
2018-11-05T03:13:52.984Z,19.13
2018-11-05T03:16:23.008Z,18.27
2018-11-05T03:18:52.874Z,19.97
2018-11-05T03:21:22.817Z,17.80
2018-11-05T03:23:52.622Z,18.97
2018-11-05T03:26:22.470Z,20.63
2018-11-05T03:28:52.405Z,20.07
2018-11-05T03:31:22.335Z,19.33
2018-11-05T03:33:52.306Z,19.43
2018-11-05T03:36:22.149Z,20.57
2018-11-05T03:38:52.128Z,18.60
2018-11-05T03:41:22.041Z,17.73
2018-11-05T03:43:51.968Z,20.27
2018-11-05T03:46:21.802Z,19.60
2018-11-05T03:48:51.770Z,19.83
2018-11-05T03:51:21.619Z,18.73
2018-11-05T03:53:51.531Z,18.67
2018-11-05T03:56:21.589Z,18.30
2018-11-05T03:58:51.397Z,17.30
2018-11-05T04:01:21.458Z,17.53
2018-11-05T04:03:51.375Z,18.17
2018-11-05T04:06:21.352Z,19.17
2018-11-05T04:08:51.363Z,19.47
2018-11-05T04:11:21.253Z,18.53
2018-11-05T04:13:51.123Z,17.70
2018-11-05T04:16:21.012Z,17.67
2018-11-05T04:18:50.863Z,17.73
2018-11-05T04:21:20.734Z,19.90
2018-11-05T04:23:50.622Z,18.83
2018-11-05T04:26:20.571Z,18.90
2018-11-05T04:28:50.655Z,19.63
2018-11-05T04:31:20.629Z,18.27
2018-11-05T04:33:50.705Z,18.93
2018-11-05T04:36:20.607Z,17.47
2018-11-05T04:38:50.403Z,18.63
2018-11-05T04:41:20.423Z,17.77
2018-11-05T04:43:50.379Z,18.90
2018-11-05T04:46:20.209Z,20.03
2018-11-05T04:48:50.097Z,19.53
2018-11-05T04:51:20.131Z,16.80
2018-11-05T04:53:50.152Z,17.33
2018-11-05T04:56:20.121Z,20.10
2018-11-05T04:58:50.054Z,19.23
2018-11-05T05:01:19.952Z,18.77
2018-11-05T05:03:49.875Z,18.37
2018-11-05T05:06:19.835Z,17.60
2018-11-05T05:08:49.854Z,19.10
2018-11-05T05:11:19.800Z,16.23
2018-11-05T05:13:49.768Z,17.23
2018-11-05T05:16:19.757Z,18.77
2018-11-05T05:18:49.678Z,17.63
2018-11-05T05:21:19.607Z,19.10
2018-11-05T05:23:49.638Z,16.40
2018-11-05T05:26:19.696Z,18.73
2018-11-05T05:28:49.545Z,17.73
2018-11-05T05:31:19.438Z,19.47
2018-11-05T05:33:49.582Z,19.00
2018-11-05T05:36:19.582Z,17.80
2018-11-05T05:38:49.438Z,19.10
2018-11-05T05:41:19.329Z,19.23
2018-11-05T05:43:49.227Z,19.07
2018-11-05T05:46:19.074Z,18.83
2018-11-05T05:48:49.036Z,18.60
2018-11-05T05:51:19.061Z,17.53
2018-11-05T05:53:48.873Z,19.10
2018-11-05T05:56:18.817Z,19.80
2018-11-05T05:58:48.731Z,19.57
2018-11-05T06:01:20.477Z,21.37
2018-11-05T06:03:50.538Z,19.13
2018-11-05T06:06:20.536Z,19.60
2018-11-05T06:08:50.349Z,21.47
2018-11-05T06:11:20.149Z,19.47
2018-11-05T06:13:50.142Z,19.33
2018-11-05T06:16:20.061Z,20.87
2018-11-05T06:18:50.074Z,19.50
2018-11-05T06:21:20.091Z,18.80
2018-11-05T06:23:49.999Z,21.00
2018-11-05T06:26:21.034Z,19.73
2018-11-05T06:28:51.016Z,19.33
2018-11-05T06:31:20.978Z,17.77
2018-11-05T06:33:50.876Z,19.97
2018-11-05T06:36:20.809Z,22.23
2018-11-05T06:38:50.864Z,18.60
2018-11-05T06:41:21.110Z,18.93
2018-11-05T06:43:50.977Z,20.00
2018-11-05T06:46:20.797Z,21.53
2018-11-05T06:48:50.780Z,22.57
2018-11-05T06:51:20.669Z,22.47
2018-11-05T06:53:50.777Z,18.03
2018-11-05T06:56:20.782Z,21.00
2018-11-05T06:58:50.775Z,24.20
2018-11-05T07:01:20.591Z,20.80
2018-11-05T07:03:50.555Z,23.43
2018-11-05T07:06:20.523Z,20.50
2018-11-05T07:08:50.548Z,22.37
2018-11-05T07:11:20.637Z,21.77
2018-11-05T07:13:50.543Z,23.57
2018-11-05T07:16:20.729Z,21.17
2018-11-05T07:18:50.998Z,25.83
2018-11-05T07:21:20.554Z,22.30
2018-11-05T07:23:50.554Z,21.87
2018-11-05T07:26:20.399Z,20.57
2018-11-05T07:28:50.354Z,22.47
2018-11-05T07:31:20.304Z,22.93
2018-11-05T07:33:50.298Z,21.80
2018-11-05T07:36:20.187Z,22.23
2018-11-05T07:38:49.955Z,21.37
2018-11-05T07:41:19.921Z,21.00
2018-11-05T07:43:49.991Z,22.20
2018-11-05T07:46:19.891Z,20.47
2018-11-05T07:48:49.743Z,20.90
2018-11-05T07:51:19.690Z,20.50
2018-11-05T07:53:49.687Z,22.63
2018-11-05T07:56:19.638Z,22.20
2018-11-05T07:58:49.465Z,19.50
2018-11-05T08:01:19.415Z,21.00
2018-11-05T08:03:49.382Z,22.30
2018-11-05T08:06:19.240Z,19.70
2018-11-05T08:08:49.126Z,23.27
2018-11-05T08:11:19.075Z,20.60
2018-11-05T08:13:48.866Z,21.10
2018-11-05T08:16:18.701Z,22.13
2018-11-05T08:18:48.600Z,22.47
2018-11-05T08:21:18.446Z,21.77
2018-11-05T08:23:48.352Z,22.17
2018-11-05T08:26:18.151Z,19.40
2018-11-05T08:28:48.146Z,22.40
2018-11-05T08:31:17.997Z,18.33
2018-11-05T08:33:47.897Z,21.17
2018-11-05T08:36:17.840Z,22.80
2018-11-05T08:38:47.737Z,19.03
2018-11-05T08:41:17.642Z,20.50
2018-11-05T08:43:47.620Z,21.57
2018-11-05T08:46:17.704Z,20.87
2018-11-05T08:48:47.642Z,21.03
2018-11-05T08:51:17.818Z,23.23
2018-11-05T08:53:47.474Z,19.50
2018-11-05T08:56:17.269Z,21.53
2018-11-05T08:58:47.161Z,19.97
2018-11-05T09:01:17.076Z,19.17
2018-11-05T09:03:49.416Z,23.40
2018-11-05T09:06:19.817Z,19.57
2018-11-05T09:08:49.652Z,18.57
2018-11-05T09:11:20.170Z,18.63
2018-11-05T09:13:49.690Z,20.70
2018-11-05T09:16:19.793Z,18.93
2018-11-05T09:18:49.702Z,21.20
2018-11-05T09:21:19.560Z,22.70
2018-11-05T09:23:49.558Z,19.83
2018-11-05T09:26:19.614Z,21.80
2018-11-05T09:28:49.754Z,20.47
2018-11-05T09:31:19.800Z,20.73
2018-11-05T09:33:49.806Z,20.97
2018-11-05T09:36:19.733Z,19.63
2018-11-05T09:38:49.671Z,20.13
2018-11-05T09:41:19.605Z,22.70
2018-11-05T09:43:49.772Z,22.87
2018-11-05T09:46:19.617Z,21.73
2018-11-05T09:48:49.594Z,19.23
2018-11-05T09:51:19.556Z,21.13
2018-11-05T09:53:49.607Z,23.33
2018-11-05T09:56:19.551Z,21.43
2018-11-05T09:58:49.387Z,22.93
2018-11-05T10:01:19.256Z,23.87
2018-11-05T10:03:56.421Z,21.63
2018-11-05T10:06:27.255Z,24.07
2018-11-05T10:08:57.207Z,23.83
2018-11-05T10:11:27.085Z,22.60
2018-11-05T10:13:56.863Z,21.47
2018-11-05T10:16:26.781Z,21.83
2018-11-05T10:18:56.898Z,22.13
2018-11-05T10:21:26.782Z,21.07
2018-11-05T10:23:56.748Z,21.20
2018-11-05T10:26:27.066Z,24.20
2018-11-05T10:28:57.068Z,22.93
2018-11-05T10:31:28.297Z,23.70
2018-11-05T10:33:58.301Z,23.83
2018-11-05T10:36:28.362Z,22.70
2018-11-05T10:38:58.158Z,22.23
2018-11-05T10:41:28.079Z,22.23
2018-11-05T10:43:58.028Z,20.13
2018-11-05T10:46:27.927Z,22.73
2018-11-05T10:48:57.876Z,24.50
2018-11-05T10:51:27.936Z,25.53
2018-11-05T10:53:58.030Z,25.20
2018-11-05T10:56:27.970Z,23.17
2018-11-05T10:58:57.835Z,25.20
2018-11-05T11:01:32.711Z,27.40
2018-11-05T11:04:07.887Z,26.23
2018-11-05T11:06:37.630Z,29.27
2018-11-05T11:09:09.846Z,28.63
2018-11-05T11:11:39.795Z,28.03
2018-11-05T11:14:09.778Z,25.90
2018-11-05T11:16:39.895Z,26.53
2018-11-05T11:19:09.803Z,25.43
2018-11-05T11:21:39.807Z,26.10
2018-11-05T11:24:09.555Z,26.20
2018-11-05T11:26:39.486Z,27.73
2018-11-05T11:29:09.418Z,25.97
2018-11-05T11:31:39.426Z,24.37
2018-11-05T11:34:09.518Z,24.53
2018-11-05T11:36:39.657Z,25.40
2018-11-05T11:39:11.757Z,28.40
2018-11-05T11:41:42.133Z,25.10
2018-11-05T11:44:12.230Z,28.47
2018-11-05T11:46:42.023Z,28.80
2018-11-05T11:49:11.928Z,28.10
2018-11-05T11:51:42.040Z,27.50
2018-11-05T11:54:11.919Z,27.07
2018-11-05T11:56:41.761Z,28.10
2018-11-05T11:59:11.934Z,26.10
2018-11-05T12:01:47.180Z,27.60
2018-11-05T12:04:17.142Z,26.70
2018-11-05T12:06:47.338Z,27.33
2018-11-05T12:09:17.245Z,27.10
2018-11-05T12:11:47.435Z,26.23
2018-11-05T12:14:17.533Z,28.13
2018-11-05T12:16:47.473Z,27.00
2018-11-05T12:19:17.353Z,25.43
2018-11-05T12:21:47.267Z,27.77
2018-11-05T12:24:17.315Z,24.87
2018-11-05T12:26:47.240Z,26.10
2018-11-05T12:29:17.258Z,24.60
2018-11-05T12:31:47.365Z,26.03
2018-11-05T12:34:17.327Z,26.67
2018-11-05T12:36:47.236Z,30.07
2018-11-05T12:39:17.343Z,26.57
2018-11-05T12:41:47.273Z,27.33
2018-11-05T12:44:17.204Z,27.17
2018-11-05T12:46:47.034Z,27.27
2018-11-05T12:49:17.083Z,26.50
2018-11-05T12:51:47.006Z,26.93
2018-11-05T12:54:17.086Z,27.00
2018-11-05T12:56:47.020Z,25.87
2018-11-05T12:59:16.914Z,24.90
2018-11-05T13:01:46.899Z,26.23
2018-11-05T13:04:16.947Z,25.83
2018-11-05T13:06:46.940Z,26.43
2018-11-05T13:09:16.923Z,25.97
2018-11-05T13:11:46.827Z,24.97
2018-11-05T13:14:16.771Z,26.13
2018-11-05T13:16:46.687Z,24.80
2018-11-05T13:19:16.581Z,25.13
2018-11-05T13:21:46.730Z,24.40
2018-11-05T13:24:16.641Z,24.57
2018-11-05T13:26:46.497Z,25.67
2018-11-05T13:29:16.529Z,24.23
2018-11-05T13:31:46.493Z,29.10
2018-11-05T13:36:46.741Z,27.03
2018-11-05T13:39:16.618Z,26.83
2018-11-05T13:41:46.618Z,26.57
2018-11-05T13:44:16.636Z,24.47
2018-11-05T13:46:46.909Z,26.90
2018-11-05T13:49:16.585Z,25.80
2018-11-05T13:51:46.382Z,26.03
2018-11-05T13:54:16.349Z,26.63
2018-11-05T13:56:46.226Z,26.07
2018-11-05T13:59:16.092Z,25.30
2018-11-05T14:01:46.170Z,28.17
2018-11-05T14:04:16.127Z,25.97
2018-11-05T14:06:49.650Z,24.30
2018-11-05T14:09:19.602Z,26.73
2018-11-05T14:11:49.538Z,26.83
2018-11-05T14:14:19.571Z,27.27
2018-11-05T14:16:49.444Z,25.20
2018-11-05T14:19:19.352Z,26.00
2018-11-05T14:21:49.260Z,25.17
2018-11-05T14:24:19.376Z,24.07
2018-11-05T14:26:49.260Z,24.53
2018-11-05T14:29:19.830Z,24.30
2018-11-05T14:31:49.202Z,23.20
2018-11-05T14:34:19.213Z,24.27
2018-11-05T14:36:49.442Z,23.50
2018-11-05T14:39:19.418Z,24.17
2018-11-05T14:41:49.378Z,24.60
2018-11-05T14:44:19.394Z,23.33
2018-11-05T14:46:49.403Z,24.80
2018-11-05T14:49:19.234Z,23.37
2018-11-05T14:51:49.123Z,21.30
2018-11-05T14:54:19.175Z,25.60
2018-11-05T14:56:49.150Z,24.30
2018-11-05T14:59:19.195Z,22.67
2018-11-05T15:01:53.257Z,22.93
2018-11-05T15:04:23.221Z,23.17
2018-11-05T15:06:53.399Z,23.70
2018-11-05T15:09:23.248Z,22.80
2018-11-05T15:11:53.366Z,21.93
2018-11-05T15:14:23.463Z,24.47
2018-11-05T15:16:53.657Z,22.30
2018-11-05T15:19:24.343Z,22.57
2018-11-05T15:21:54.402Z,22.43
2018-11-05T15:24:24.421Z,23.43
2018-11-05T15:26:55.713Z,22.67
2018-11-05T15:29:26.798Z,24.17
2018-11-05T15:31:57.228Z,21.83
2018-11-05T15:34:27.300Z,22.07
2018-11-05T15:36:57.495Z,22.57
2018-11-05T15:39:27.556Z,25.67
2018-11-05T15:41:57.578Z,22.40
2018-11-05T15:44:27.600Z,20.77
2018-11-05T15:46:57.530Z,22.23
2018-11-05T15:49:27.455Z,23.93
2018-11-05T15:51:57.913Z,24.23
2018-11-05T15:54:27.770Z,22.40
2018-11-05T15:56:57.832Z,23.60
2018-11-05T15:59:28.132Z,25.47
2018-11-05T16:02:02.274Z,25.30
2018-11-05T16:04:32.501Z,24.10
2018-11-05T16:07:02.676Z,23.90
2018-11-05T16:09:32.765Z,23.13
2018-11-05T16:12:02.706Z,24.40
2018-11-05T16:14:32.652Z,23.50
2018-11-05T16:17:02.566Z,22.60
2018-11-05T16:19:32.545Z,26.33
2018-11-05T16:22:02.493Z,24.70
2018-11-05T16:24:32.575Z,24.07
2018-11-05T16:27:02.478Z,27.00
2018-11-05T16:29:32.506Z,27.30
2018-11-05T16:32:06.329Z,22.63
2018-11-05T16:34:36.352Z,27.00
2018-11-05T16:37:06.697Z,22.97
2018-11-05T16:39:36.817Z,26.80
2018-11-05T16:42:06.943Z,25.53
2018-11-05T16:44:37.099Z,26.10
2018-11-05T16:47:07.486Z,24.47
2018-11-05T16:49:37.944Z,28.47
2018-11-05T16:52:09.463Z,26.57
2018-11-05T16:54:39.730Z,25.70
2018-11-05T16:57:10.710Z,26.53
2018-11-05T16:59:40.809Z,24.30
2018-11-05T17:02:14.404Z,21.10
2018-11-05T17:04:45.799Z,21.53
2018-11-05T17:07:16.391Z,23.13
2018-11-05T17:09:46.459Z,27.27
2018-11-05T17:12:16.588Z,26.17
2018-11-05T17:14:46.811Z,27.57
2018-11-05T17:17:16.947Z,26.80
2018-11-05T17:19:47.333Z,26.67
2018-11-05T17:22:17.811Z,28.47
2018-11-05T17:24:48.183Z,25.37
2018-11-05T17:27:18.059Z,25.70
2018-11-05T17:29:48.683Z,24.30
2018-11-05T17:32:18.753Z,25.23
2018-11-05T17:34:48.555Z,27.17
2018-11-05T17:37:18.827Z,25.57
2018-11-05T17:42:30.783Z,23.97
2018-11-05T17:45:01.037Z,23.57
2018-11-05T17:47:31.219Z,26.70
2018-11-05T17:50:01.530Z,25.87
2018-11-05T17:52:31.773Z,25.10
2018-11-05T17:55:02.023Z,22.83
2018-11-05T17:57:32.009Z,23.47
2018-11-05T18:00:01.935Z,19.70
2018-11-05T18:02:32.266Z,21.47
2018-11-05T18:05:02.299Z,22.10
2018-11-05T18:07:32.503Z,22.80
2018-11-05T18:10:02.437Z,22.37
2018-11-05T18:12:32.359Z,26.67
2018-11-05T18:15:02.474Z,28.17
2018-11-05T18:17:32.492Z,24.17
2018-11-05T18:20:02.553Z,30.33
2018-11-05T18:22:32.643Z,26.23
2018-11-05T18:25:02.707Z,26.40
2018-11-05T18:27:32.783Z,27.17
2018-11-05T18:30:02.669Z,25.87
2018-11-05T18:32:32.651Z,29.13
2018-11-05T18:35:03.033Z,27.10
2018-11-05T18:37:32.889Z,26.63
2018-11-05T18:40:02.824Z,27.67
2018-11-05T18:42:32.769Z,31.83
2018-11-05T18:45:02.634Z,27.60
2018-11-05T18:47:32.592Z,25.83
2018-11-05T18:50:02.677Z,26.70
2018-11-05T18:52:32.574Z,27.93
2018-11-05T18:55:02.521Z,29.50
2018-11-05T18:57:32.361Z,30.67
2018-11-05T19:00:02.255Z,29.37
2018-11-05T19:02:35.117Z,28.00
2018-11-05T19:05:05.214Z,27.53
2018-11-05T19:07:35.438Z,29.10
2018-11-05T19:10:06.505Z,30.73
2018-11-05T19:12:36.562Z,29.57
2018-11-05T19:15:08.060Z,30.70
2018-11-05T19:17:37.999Z,32.00
2018-11-05T19:20:08.609Z,30.73
2018-11-05T19:22:39.317Z,27.27
2018-11-05T19:25:11.096Z,28.73
2018-11-05T19:27:41.605Z,28.97
2018-11-05T19:30:15.609Z,29.70
2018-11-05T19:32:45.960Z,26.13
2018-11-05T19:35:15.941Z,28.50
2018-11-05T19:37:45.898Z,24.80
2018-11-05T19:40:16.518Z,24.57
2018-11-05T19:42:47.122Z,24.20
2018-11-05T19:45:18.706Z,25.90
2018-11-05T19:47:48.621Z,24.30
2018-11-05T19:50:19.848Z,25.70
2018-11-05T19:52:51.464Z,26.23
2018-11-05T19:55:21.447Z,24.37
2018-11-05T19:57:52.336Z,24.83
2018-11-05T20:00:25.563Z,28.17
2018-11-05T20:02:56.235Z,23.77
2018-11-05T20:05:26.460Z,25.67
2018-11-05T20:07:57.333Z,24.87
2018-11-05T20:10:27.381Z,24.73
2018-11-05T20:12:57.278Z,26.47
2018-11-05T20:15:27.361Z,24.40
2018-11-05T20:17:57.585Z,23.67
2018-11-05T20:20:27.753Z,25.63
2018-11-05T20:22:57.693Z,23.83
2018-11-05T20:25:27.563Z,20.50
2018-11-05T20:27:57.372Z,25.33
2018-11-05T20:30:28.151Z,25.40
2018-11-05T20:32:59.275Z,21.87
2018-11-05T20:35:28.910Z,22.47
2018-11-05T20:37:58.787Z,23.00
2018-11-05T20:40:28.815Z,24.23
2018-11-05T20:42:58.805Z,23.00
2018-11-05T20:45:28.801Z,23.33
2018-11-05T20:47:58.665Z,21.00
2018-11-05T20:50:28.517Z,23.90
2018-11-05T20:52:58.449Z,22.47
2018-11-05T20:55:28.321Z,24.63
2018-11-05T20:57:58.259Z,23.67
2018-11-05T21:00:28.143Z,24.07
2018-11-05T21:02:58.001Z,22.10
2018-11-05T21:05:27.847Z,21.03
2018-11-05T21:07:57.726Z,19.60
2018-11-05T21:10:27.514Z,23.50
2018-11-05T21:12:57.357Z,22.87
2018-11-05T21:15:27.463Z,25.60
2018-11-05T21:17:57.618Z,25.63
2018-11-05T21:20:27.553Z,26.40
2018-11-05T21:22:57.504Z,24.87
2018-11-05T21:25:27.462Z,22.83
2018-11-05T21:27:57.395Z,23.50
2018-11-05T21:30:27.243Z,24.07
2018-11-05T21:32:57.367Z,24.73
2018-11-05T21:35:27.321Z,24.43
2018-11-05T21:37:57.394Z,24.60
2018-11-05T21:40:27.376Z,22.57
2018-11-05T21:42:57.506Z,23.43
2018-11-05T21:45:27.455Z,23.50
2018-11-05T21:47:57.335Z,21.77
2018-11-05T21:50:27.178Z,23.80
2018-11-05T21:52:57.130Z,21.53
2018-11-05T21:55:26.978Z,22.20
2018-11-05T21:57:56.833Z,24.03
2018-11-05T22:00:26.774Z,24.63
2018-11-05T22:03:09.530Z,24.10
2018-11-05T22:05:39.405Z,24.87
2018-11-05T22:08:09.294Z,24.17
2018-11-05T22:10:39.340Z,25.17
2018-11-05T22:13:09.232Z,20.87
2018-11-05T22:15:47.381Z,23.80
2018-11-05T22:18:18.125Z,23.30
2018-11-05T22:20:47.965Z,22.77
2018-11-05T22:23:17.885Z,23.67
2018-11-05T22:25:47.781Z,21.20
2018-11-05T22:28:17.709Z,18.03
2018-11-05T22:30:47.509Z,18.53
2018-11-05T22:33:17.284Z,20.70
2018-11-05T22:35:47.302Z,16.83
2018-11-05T22:38:17.248Z,19.70
2018-11-05T22:40:47.131Z,21.07
2018-11-05T22:43:17.228Z,20.70
2018-11-05T22:45:47.050Z,21.47
2018-11-05T22:48:16.934Z,21.13
2018-11-05T22:50:46.870Z,24.17
2018-11-05T22:53:16.788Z,20.00
2018-11-05T22:55:46.618Z,21.47
2018-11-05T22:58:16.432Z,20.63
2018-11-05T23:00:51.570Z,20.10
2018-11-05T23:03:26.449Z,18.87
2018-11-05T23:05:56.727Z,20.40
2018-11-05T23:08:27.128Z,20.90
2018-11-05T23:10:57.339Z,17.93
2018-11-05T23:13:27.291Z,18.83
2018-11-05T23:15:57.173Z,18.67
2018-11-05T23:18:27.019Z,23.60
2018-11-05T23:20:56.934Z,23.67
2018-11-05T23:23:26.803Z,21.60
2018-11-05T23:25:56.790Z,23.37
2018-11-05T23:28:26.665Z,19.73
2018-11-05T23:30:56.573Z,21.80
2018-11-05T23:33:26.658Z,20.87
2018-11-05T23:35:56.465Z,20.90
2018-11-05T23:38:26.323Z,21.70
2018-11-05T23:40:56.251Z,26.63
2018-11-05T23:43:26.030Z,17.37
2018-11-05T23:45:55.850Z,19.73
2018-11-05T23:48:25.744Z,19.10
2018-11-05T23:50:55.581Z,20.10
2018-11-05T23:53:25.415Z,20.33
2018-11-05T23:55:55.287Z,19.20
2018-11-05T23:58:25.141Z,21.93
